createdAt,value
2023-03-07T00:01:36.039Z,39.34
2023-03-07T00:04:07.792Z,39.14
2023-03-07T00:06:37.147Z,39.30
2023-03-07T00:09:07.130Z,39.37
2023-03-07T00:11:37.047Z,39.30
2023-03-07T00:14:09.345Z,39.25
2023-03-07T00:16:39.955Z,39.11
2023-03-07T00:19:10.207Z,39.02
2023-03-07T00:21:40.037Z,38.62
2023-03-07T00:24:11.987Z,38.69
2023-03-07T00:26:42.025Z,38.34
2023-03-07T00:29:12.701Z,38.29
2023-03-07T00:31:42.323Z,38.28
2023-03-07T00:34:12.307Z,37.16
2023-03-07T00:36:43.236Z,37.97
2023-03-07T00:39:13.735Z,37.10
2023-03-07T00:41:46.648Z,36.91
2023-03-07T00:44:17.334Z,36.95
2023-03-07T00:46:47.284Z,36.85
2023-03-07T00:49:17.654Z,36.92
2023-03-07T00:51:48.546Z,36.66
2023-03-07T00:54:20.320Z,36.52
2023-03-07T00:56:50.746Z,36.63
2023-03-07T00:59:21.981Z,36.29
2023-03-07T01:01:52.829Z,36.22
2023-03-07T01:04:22.447Z,37.41
2023-03-07T01:06:54.164Z,37.55
2023-03-07T01:09:25.064Z,37.59
2023-03-07T01:11:59.578Z,37.48
2023-03-07T01:14:32.675Z,37.42
2023-03-07T01:17:02.239Z,37.50
2023-03-07T01:19:33.645Z,37.48
2023-03-07T01:22:03.991Z,37.35
2023-03-07T01:24:34.366Z,37.31
2023-03-07T01:27:05.339Z,37.20
2023-03-07T01:29:37.063Z,37.25
2023-03-07T01:32:08.768Z,37.22
2023-03-07T01:34:38.413Z,37.14
2023-03-07T01:37:08.714Z,37.11
2023-03-07T01:39:37.586Z,37.04
2023-03-07T01:42:10.916Z,37.08
2023-03-07T01:45:38.025Z,37.66
2023-03-07T01:48:09.082Z,37.30
2023-03-07T01:50:39.949Z,37.12
2023-03-07T01:53:11.706Z,37.23
2023-03-07T01:55:41.656Z,36.97
2023-03-07T01:58:19.652Z,36.83
2023-03-07T02:00:49.668Z,37.24
2023-03-07T02:03:23.810Z,36.75
2023-03-07T02:06:03.738Z,36.64
2023-03-07T02:08:41.615Z,36.53
2023-03-07T02:11:14.908Z,36.38
2023-03-07T02:13:44.907Z,36.28
2023-03-07T02:16:15.475Z,36.23
2023-03-07T02:18:48.660Z,36.36
2023-03-07T02:21:45.647Z,35.88
2023-03-07T02:24:36.383Z,35.71
2023-03-07T02:27:07.653Z,35.55
2023-03-07T02:29:38.442Z,35.47
2023-03-07T02:32:09.806Z,35.45
2023-03-07T02:34:40.183Z,35.47
2023-03-07T02:37:24.957Z,36.13
2023-03-07T02:40:00.922Z,36.15
2023-03-07T02:42:34.681Z,36.96
2023-03-07T02:45:15.798Z,37.39
2023-03-07T02:47:48.491Z,36.52
2023-03-07T02:50:20.945Z,36.25
2023-03-07T02:52:53.665Z,36.11
2023-03-07T02:55:25.582Z,35.92
2023-03-07T02:58:01.333Z,35.87
2023-03-07T03:00:32.107Z,35.81
2023-03-07T03:03:01.780Z,35.68
2023-03-07T03:05:33.349Z,35.69
2023-03-07T03:08:03.515Z,35.67
2023-03-07T03:10:32.900Z,35.59
2023-03-07T03:13:04.097Z,35.24
2023-03-07T03:15:33.681Z,35.08
2023-03-07T03:18:08.582Z,35.03
2023-03-07T03:20:40.870Z,34.91
2023-03-07T03:23:10.945Z,35.02
2023-03-07T03:25:45.192Z,34.87
2023-03-07T03:28:16.181Z,34.95
2023-03-07T03:30:45.536Z,34.74
2023-03-07T03:33:15.835Z,35.07
2023-03-07T03:35:45.972Z,34.54
2023-03-07T03:38:18.159Z,34.42
2023-03-07T03:40:48.372Z,34.44
2023-03-07T03:43:20.775Z,34.37
2023-03-07T03:46:00.764Z,35.57
2023-03-07T03:48:33.106Z,34.57
2023-03-07T03:51:10.024Z,34.37
2023-03-07T03:53:41.658Z,34.29
2023-03-07T03:56:17.845Z,34.30
2023-03-07T03:58:56.788Z,34.29
2023-03-07T04:01:31.928Z,34.29
2023-03-07T04:04:03.554Z,34.27
2023-03-07T04:06:36.084Z,34.17
2023-03-07T04:09:07.093Z,34.10
2023-03-07T04:11:37.690Z,34.10
2023-03-07T04:14:09.373Z,34.09
2023-03-07T04:16:39.440Z,34.07
2023-03-07T04:19:13.706Z,34.08
2023-03-07T04:21:45.392Z,34.71
2023-03-07T04:24:17.719Z,35.20
2023-03-07T04:26:47.886Z,34.36
2023-03-07T04:29:18.170Z,34.20
2023-03-07T04:32:03.774Z,34.19
2023-03-07T04:34:33.008Z,34.11
2023-03-07T04:37:01.848Z,34.06
2023-03-07T04:39:31.440Z,34.23
2023-03-07T04:42:02.135Z,34.09
2023-03-07T04:44:36.946Z,34.19
2023-03-07T04:47:05.984Z,34.12
2023-03-07T04:49:40.016Z,34.17
2023-03-07T04:52:09.800Z,34.19
2023-03-07T04:54:41.314Z,34.19
2023-03-07T04:57:11.479Z,34.27
2023-03-07T04:59:41.064Z,34.28
2023-03-07T05:02:14.172Z,34.40
2023-03-07T05:04:45.134Z,34.50
2023-03-07T05:07:16.064Z,34.50
2023-03-07T05:09:45.511Z,34.72
2023-03-07T05:12:15.592Z,34.78
2023-03-07T05:14:44.928Z,34.77
2023-03-07T05:17:14.097Z,34.73
2023-03-07T05:19:45.139Z,34.72
2023-03-07T05:22:14.142Z,34.67
2023-03-07T05:24:45.425Z,34.71
2023-03-07T05:27:14.529Z,34.65
2023-03-07T05:29:47.533Z,35.04
2023-03-07T05:32:16.666Z,35.04
2023-03-07T05:34:48.502Z,35.03
2023-03-07T05:37:19.830Z,34.65
2023-03-07T05:39:49.598Z,35.04
2023-03-07T05:42:19.844Z,34.65
2023-03-07T05:44:49.613Z,34.69
2023-03-07T05:47:19.573Z,34.65
2023-03-07T05:49:49.360Z,35.30
2023-03-07T05:52:19.199Z,35.24
2023-03-07T05:54:51.312Z,35.68
2023-03-07T05:57:21.050Z,35.42
2023-03-07T05:59:49.876Z,34.86
2023-03-07T06:02:19.358Z,34.71
2023-03-07T06:04:48.569Z,34.68
2023-03-07T06:07:17.585Z,34.68
2023-03-07T06:09:47.686Z,34.62
2023-03-07T06:12:17.159Z,35.14
2023-03-07T06:14:45.947Z,34.66
2023-03-07T06:17:16.476Z,34.63
2023-03-07T06:19:46.065Z,34.65
2023-03-07T06:22:16.926Z,35.19
2023-03-07T06:24:45.806Z,35.13
2023-03-07T06:27:15.635Z,34.82
2023-03-07T06:29:44.885Z,34.84
2023-03-07T06:32:14.688Z,34.89
2023-03-07T06:34:45.417Z,34.97
2023-03-07T06:37:16.119Z,34.90
2023-03-07T06:39:46.310Z,34.99
2023-03-07T06:42:16.436Z,34.60
2023-03-07T06:44:45.818Z,34.25
2023-03-07T06:47:16.238Z,34.00
2023-03-07T06:49:46.050Z,33.82
2023-03-07T06:52:16.688Z,33.73
2023-03-07T06:54:46.211Z,33.74
2023-03-07T06:57:16.247Z,33.79
2023-03-07T06:59:47.843Z,33.79
2023-03-07T07:02:17.474Z,33.76
2023-03-07T07:04:45.881Z,33.72
2023-03-07T07:07:15.947Z,33.94
2023-03-07T07:09:45.655Z,33.75
2023-03-07T07:12:15.293Z,33.98
2023-03-07T07:14:43.939Z,34.33
2023-03-07T07:17:13.358Z,34.44
2023-03-07T07:19:42.122Z,34.60
2023-03-07T07:22:12.623Z,34.65
2023-03-07T07:24:41.964Z,34.03
2023-03-07T07:27:13.222Z,33.59
2023-03-07T07:29:45.070Z,33.24
2023-03-07T07:32:13.680Z,33.16
2023-03-07T07:34:43.944Z,33.13
2023-03-07T07:37:14.077Z,34.00
2023-03-07T07:39:45.385Z,34.11
2023-03-07T07:42:16.164Z,33.60
2023-03-07T07:45:01.400Z,35.31
2023-03-07T07:47:31.654Z,34.67
2023-03-07T07:50:01.353Z,34.37
2023-03-07T07:52:33.877Z,33.40
2023-03-07T07:55:03.804Z,33.06
2023-03-07T07:57:33.781Z,32.94
2023-03-07T08:00:07.070Z,33.84
2023-03-07T08:02:41.636Z,34.14
2023-03-07T08:05:11.848Z,34.18
2023-03-07T08:07:41.105Z,34.24
2023-03-07T08:10:14.075Z,33.51
2023-03-07T08:12:49.193Z,33.19
2023-03-07T08:15:21.155Z,33.09
2023-03-07T08:17:53.295Z,33.05
2023-03-07T08:20:25.120Z,32.99
2023-03-07T08:22:54.805Z,33.03
2023-03-07T08:25:28.843Z,33.18
2023-03-07T08:28:00.493Z,33.66
2023-03-07T08:30:33.457Z,34.24
2023-03-07T08:33:02.224Z,34.39
2023-03-07T08:35:34.486Z,34.36
2023-03-07T08:38:06.010Z,34.41
2023-03-07T08:40:37.104Z,34.36
2023-03-07T08:43:06.498Z,34.39
2023-03-07T08:45:37.737Z,34.39
2023-03-07T08:48:07.784Z,34.38
2023-03-07T08:50:38.129Z,34.37
2023-03-07T08:53:08.552Z,34.43
2023-03-07T08:55:39.743Z,34.34
2023-03-07T08:58:10.258Z,34.29
2023-03-07T09:00:41.124Z,34.20
2023-03-07T09:03:10.391Z,34.08
2023-03-07T09:05:40.927Z,33.97
2023-03-07T09:08:10.384Z,33.89
2023-03-07T09:10:41.337Z,33.88
2023-03-07T09:13:11.232Z,33.98
2023-03-07T09:15:40.991Z,34.04
2023-03-07T09:18:13.910Z,34.04
2023-03-07T09:20:44.768Z,34.01
2023-03-07T09:23:14.526Z,33.48
2023-03-07T09:25:45.541Z,32.74
2023-03-07T09:28:16.468Z,32.55
2023-03-07T09:30:46.012Z,32.41
2023-03-07T09:33:16.976Z,32.26
2023-03-07T09:35:46.209Z,32.20
2023-03-07T09:38:19.521Z,32.19
2023-03-07T09:40:49.737Z,32.20
2023-03-07T09:43:27.196Z,33.54
2023-03-07T09:46:42.751Z,33.79
2023-03-07T09:49:21.165Z,33.67
2023-03-07T09:51:53.321Z,33.89
2023-03-07T09:54:45.731Z,33.35
2023-03-07T09:57:36.506Z,33.31
2023-03-07T10:00:30.305Z,33.33
2023-03-07T10:03:32.202Z,32.36
2023-03-07T10:06:14.002Z,33.00
2023-03-07T10:08:45.931Z,32.69
2023-03-07T10:11:45.991Z,32.58
2023-03-07T10:14:16.141Z,32.64
2023-03-07T10:16:50.025Z,32.42
2023-03-07T10:19:45.703Z,32.56
2023-03-07T10:22:45.425Z,32.66
2023-03-07T10:25:29.256Z,31.84
2023-03-07T10:28:24.084Z,32.28
2023-03-07T10:30:59.771Z,32.08
2023-03-07T10:33:33.308Z,31.89
2023-03-07T10:36:09.768Z,31.68
2023-03-07T10:38:49.709Z,32.07
2023-03-07T10:41:22.633Z,32.43
2023-03-07T10:43:55.616Z,32.54
2023-03-07T10:46:33.917Z,32.23
2023-03-07T10:49:10.563Z,32.23
2023-03-07T10:52:05.478Z,32.56
2023-03-07T10:54:38.023Z,32.50
2023-03-07T10:57:17.947Z,32.38
2023-03-07T10:59:51.597Z,32.49
2023-03-07T11:02:45.490Z,32.60
2023-03-07T11:05:37.404Z,32.86
2023-03-07T11:08:35.900Z,32.81
2023-03-07T11:11:06.231Z,32.79
2023-03-07T11:13:36.887Z,32.60
2023-03-07T11:16:22.273Z,32.57
2023-03-07T11:18:51.784Z,32.51
2023-03-07T11:21:37.811Z,32.52
2023-03-07T11:24:32.237Z,32.61
2023-03-07T11:27:02.664Z,32.46
2023-03-07T11:29:37.673Z,32.54
2023-03-07T11:32:21.871Z,32.73
2023-03-07T11:35:07.479Z,32.54
2023-03-07T11:37:37.397Z,32.74
2023-03-07T11:40:10.972Z,32.81
2023-03-07T11:42:45.357Z,32.66
2023-03-07T11:45:36.133Z,33.58
2023-03-07T11:48:23.963Z,32.63
2023-03-07T11:51:00.521Z,33.09
2023-03-07T11:53:56.008Z,32.90
2023-03-07T11:56:36.187Z,32.45
2023-03-07T11:59:33.218Z,32.18
2023-03-07T12:02:08.033Z,32.25
2023-03-07T12:05:05.920Z,32.34
2023-03-07T12:08:06.095Z,32.24
2023-03-07T12:11:02.253Z,32.01
2023-03-07T12:13:55.909Z,32.08
2023-03-07T12:16:33.341Z,32.25
2023-03-07T12:19:33.877Z,33.09
2023-03-07T12:22:16.653Z,32.29
2023-03-07T12:25:05.183Z,32.17
2023-03-07T12:28:04.209Z,32.06
2023-03-07T12:30:41.222Z,32.92
2023-03-07T12:33:26.354Z,32.74
2023-03-07T12:36:09.530Z,32.87
2023-03-07T12:39:25.243Z,32.10
2023-03-07T12:42:05.265Z,31.66
2023-03-07T12:44:34.123Z,31.56
2023-03-07T12:47:25.167Z,31.42
2023-03-07T12:50:25.911Z,31.66
2023-03-07T12:53:30.738Z,31.61
2023-03-07T12:56:13.582Z,31.61
2023-03-07T12:59:01.659Z,31.45
2023-03-07T13:01:41.825Z,31.55
2023-03-07T13:04:22.609Z,31.41
2023-03-07T13:06:54.713Z,31.29
2023-03-07T13:09:34.258Z,31.20
2023-03-07T13:12:17.269Z,31.31
2023-03-07T13:14:52.014Z,30.86
2023-03-07T13:17:36.114Z,31.60
2023-03-07T13:20:25.496Z,31.06
2023-03-07T13:22:54.535Z,31.04
2023-03-07T13:25:26.624Z,30.71
2023-03-07T13:28:00.519Z,30.85
2023-03-07T13:30:32.262Z,30.70
2023-03-07T13:33:02.834Z,30.96
2023-03-07T13:36:00.273Z,30.88
2023-03-07T13:38:41.876Z,30.67
2023-03-07T13:41:35.646Z,30.64
2023-03-07T13:44:05.364Z,30.68
2023-03-07T13:46:43.977Z,30.75
2023-03-07T13:49:13.434Z,30.80
2023-03-07T13:52:18.621Z,30.88
2023-03-07T13:54:50.458Z,31.02
2023-03-07T13:57:22.466Z,31.57
2023-03-07T13:59:53.186Z,30.76
2023-03-07T14:02:25.137Z,30.62
2023-03-07T14:05:01.369Z,30.60
2023-03-07T14:07:37.934Z,30.71
2023-03-07T14:10:31.655Z,30.97
2023-03-07T14:13:32.324Z,31.59
2023-03-07T14:16:14.240Z,31.29
2023-03-07T14:18:49.880Z,31.25
2023-03-07T14:21:53.301Z,31.29
2023-03-07T14:24:44.087Z,31.36
2023-03-07T14:27:18.184Z,31.42
2023-03-07T14:29:58.326Z,32.76
2023-03-07T14:32:32.837Z,32.26
2023-03-07T14:35:01.859Z,33.31
2023-03-07T14:37:33.595Z,33.38
2023-03-07T14:40:21.175Z,33.39
2023-03-07T14:43:09.195Z,33.28
2023-03-07T14:46:07.818Z,32.26
2023-03-07T14:49:01.456Z,31.84
2023-03-07T14:51:31.764Z,31.65
2023-03-07T14:54:08.725Z,31.58
2023-03-07T14:56:39.379Z,31.75
2023-03-07T14:59:25.920Z,31.70
2023-03-07T15:02:00.388Z,31.56
2023-03-07T15:04:32.105Z,31.41
2023-03-07T15:07:05.375Z,31.35
2023-03-07T15:09:35.657Z,31.37
2023-03-07T15:12:11.995Z,31.46
2023-03-07T15:14:53.246Z,31.56
2023-03-07T15:17:31.629Z,31.63
2023-03-07T15:20:04.844Z,31.74
2023-03-07T15:22:40.414Z,31.74
2023-03-07T15:25:25.233Z,31.89
2023-03-07T15:28:05.579Z,32.00
2023-03-07T15:30:38.419Z,32.08
2023-03-07T15:33:17.237Z,32.28
2023-03-07T15:35:49.281Z,32.45
2023-03-07T15:38:24.389Z,32.55
2023-03-07T15:40:53.271Z,33.04
2023-03-07T15:43:27.803Z,34.46
2023-03-07T15:46:19.848Z,33.29
2023-03-07T15:48:54.721Z,33.17
2023-03-07T15:51:29.253Z,33.23
2023-03-07T15:54:05.669Z,33.39
2023-03-07T15:56:41.184Z,33.38
2023-03-07T15:59:22.705Z,34.18
2023-03-07T16:01:51.919Z,33.78
2023-03-07T16:04:37.823Z,33.78
2023-03-07T16:07:17.980Z,33.83
2023-03-07T16:09:47.897Z,34.02
2023-03-07T16:12:21.119Z,34.17
2023-03-07T16:14:53.915Z,34.11
2023-03-07T16:17:38.657Z,34.36
2023-03-07T16:20:16.813Z,34.26
2023-03-07T16:22:48.436Z,34.17
2023-03-07T16:25:18.494Z,34.25
2023-03-07T16:27:53.686Z,34.59
2023-03-07T16:30:30.879Z,35.01
2023-03-07T16:33:01.134Z,34.59
2023-03-07T16:35:32.104Z,34.37
2023-03-07T16:38:01.272Z,34.46
2023-03-07T16:40:33.625Z,34.70
2023-03-07T16:43:02.529Z,34.67
2023-03-07T16:45:33.746Z,34.66
2023-03-07T16:48:04.472Z,34.71
2023-03-07T16:50:34.163Z,34.82
2023-03-07T16:53:04.582Z,35.28
2023-03-07T16:55:35.367Z,34.53
2023-03-07T16:58:06.490Z,34.56
2023-03-07T17:00:35.989Z,34.54
2023-03-07T17:03:05.932Z,34.56
2023-03-07T17:05:35.657Z,34.59
2023-03-07T17:08:04.990Z,35.52
2023-03-07T17:10:43.636Z,34.64
2023-03-07T17:13:18.603Z,34.99
2023-03-07T17:15:50.147Z,34.75
2023-03-07T17:18:23.176Z,34.53
2023-03-07T17:20:53.874Z,34.92
2023-03-07T17:23:22.949Z,35.19
2023-03-07T17:25:52.858Z,34.67
2023-03-07T17:28:22.251Z,34.46
2023-03-07T17:30:50.529Z,34.35
2023-03-07T17:33:21.076Z,34.27
2023-03-07T17:35:49.982Z,33.86
2023-03-07T17:38:21.563Z,33.97
2023-03-07T17:40:56.185Z,34.30
2023-03-07T17:43:25.908Z,34.07
2023-03-07T17:45:58.349Z,34.33
2023-03-07T17:48:30.501Z,34.50
2023-03-07T17:51:01.523Z,34.53
2023-03-07T17:53:32.018Z,34.56
2023-03-07T17:56:10.552Z,34.63
2023-03-07T17:58:40.889Z,34.61
2023-03-07T18:01:14.213Z,34.74
2023-03-07T18:03:45.361Z,34.93
2023-03-07T18:06:15.208Z,35.21
2023-03-07T18:08:44.163Z,35.32
2023-03-07T18:11:14.242Z,35.34
2023-03-07T18:13:44.006Z,35.39
2023-03-07T18:16:14.095Z,35.38
2023-03-07T18:18:58.118Z,35.23
2023-03-07T18:21:30.208Z,35.64
2023-03-07T18:24:01.250Z,35.59
2023-03-07T18:26:31.665Z,35.39
2023-03-07T18:29:01.675Z,35.36
2023-03-07T18:31:32.412Z,35.33
2023-03-07T18:34:03.823Z,35.25
2023-03-07T18:36:33.543Z,35.42
2023-03-07T18:39:02.002Z,35.53
2023-03-07T18:41:31.965Z,35.50
2023-03-07T18:44:01.494Z,35.57
2023-03-07T18:46:33.405Z,35.65
2023-03-07T18:49:04.177Z,35.83
2023-03-07T18:51:34.229Z,35.88
2023-03-07T18:54:05.035Z,35.89
2023-03-07T18:56:34.676Z,35.78
2023-03-07T18:59:04.922Z,35.75
2023-03-07T19:01:36.649Z,35.83
2023-03-07T19:04:06.649Z,35.81
2023-03-07T19:06:40.820Z,35.76
2023-03-07T19:09:19.794Z,35.75
2023-03-07T19:11:49.294Z,35.88
2023-03-07T19:14:18.324Z,35.94
2023-03-07T19:16:47.852Z,35.93
2023-03-07T19:19:17.472Z,36.06
2023-03-07T19:21:46.081Z,35.89
2023-03-07T19:24:15.953Z,36.00
2023-03-07T19:26:45.254Z,36.06
2023-03-07T19:29:15.661Z,36.15
2023-03-07T19:31:44.978Z,36.06
2023-03-07T19:34:14.016Z,36.04
2023-03-07T19:36:43.859Z,35.99
2023-03-07T19:39:20.817Z,35.90
2023-03-07T19:41:49.650Z,35.88
2023-03-07T19:44:18.325Z,36.07
2023-03-07T19:46:47.805Z,36.04
2023-03-07T19:49:18.507Z,35.90
2023-03-07T19:51:48.167Z,35.78
2023-03-07T19:54:17.565Z,35.68
2023-03-07T19:56:46.231Z,35.74
2023-03-07T19:59:15.886Z,35.63
2023-03-07T20:01:45.161Z,35.53
2023-03-07T20:04:17.359Z,35.55
2023-03-07T20:06:45.939Z,35.70
2023-03-07T20:09:15.940Z,35.72
2023-03-07T20:11:45.229Z,35.72
2023-03-07T20:14:14.608Z,35.74
2023-03-07T20:16:44.818Z,36.09
2023-03-07T20:19:14.656Z,36.26
2023-03-07T20:21:50.252Z,35.89
2023-03-07T20:24:21.479Z,35.64
2023-03-07T20:26:50.726Z,36.60
2023-03-07T20:29:20.164Z,35.88
2023-03-07T20:31:50.653Z,35.78
2023-03-07T20:34:20.608Z,35.69
2023-03-07T20:36:49.802Z,35.62
2023-03-07T20:39:18.765Z,35.54
2023-03-07T20:41:47.913Z,35.52
2023-03-07T20:44:17.442Z,35.49
2023-03-07T20:46:46.092Z,35.29
2023-03-07T20:49:17.360Z,35.25
2023-03-07T20:51:48.004Z,35.41
2023-03-07T20:54:18.658Z,35.06
2023-03-07T20:56:49.363Z,34.99
2023-03-07T20:59:20.928Z,34.96
2023-03-07T21:01:50.205Z,34.94
2023-03-07T21:04:21.567Z,34.89
2023-03-07T21:06:50.420Z,34.95
2023-03-07T21:09:20.802Z,34.93
2023-03-07T21:11:50.630Z,34.89
2023-03-07T21:14:21.708Z,34.73
2023-03-07T21:16:50.388Z,34.65
2023-03-07T21:19:20.408Z,34.66
2023-03-07T21:21:49.660Z,34.67
2023-03-07T21:24:19.856Z,34.66
2023-03-07T21:26:49.400Z,34.72
2023-03-07T21:29:18.218Z,34.59
2023-03-07T21:31:47.756Z,34.51
2023-03-07T21:34:17.223Z,34.46
2023-03-07T21:36:46.380Z,34.41
2023-03-07T21:39:16.398Z,34.28
2023-03-07T21:41:45.614Z,34.09
2023-03-07T21:44:16.141Z,34.02
2023-03-07T21:46:45.848Z,34.07
2023-03-07T21:49:14.610Z,34.47
2023-03-07T21:51:45.023Z,34.00
2023-03-07T21:54:14.315Z,33.92
2023-03-07T21:56:44.390Z,33.97
2023-03-07T21:59:14.231Z,33.91
2023-03-07T22:01:43.954Z,33.86
2023-03-07T22:04:12.912Z,33.85
2023-03-07T22:06:42.113Z,33.91
2023-03-07T22:09:12.094Z,33.93
2023-03-07T22:11:41.410Z,33.96
2023-03-07T22:14:09.915Z,33.96
2023-03-07T22:16:40.141Z,33.96
2023-03-07T22:19:09.480Z,33.93
2023-03-07T22:21:38.378Z,34.22
2023-03-07T22:24:07.957Z,33.81
2023-03-07T22:26:37.328Z,33.73
2023-03-07T22:29:06.307Z,33.75
2023-03-07T22:31:36.298Z,33.64
2023-03-07T22:34:06.068Z,33.56
2023-03-07T22:36:35.905Z,33.43
2023-03-07T22:39:05.129Z,33.39
2023-03-07T22:41:35.285Z,33.38
2023-03-07T22:44:04.375Z,33.35
2023-03-07T22:46:34.355Z,33.34
2023-03-07T22:49:03.834Z,33.24
2023-03-07T22:51:32.418Z,33.24
2023-03-07T22:54:03.706Z,33.24
2023-03-07T22:56:33.267Z,33.36
2023-03-07T22:59:06.713Z,33.36
2023-03-07T23:01:40.348Z,33.29
2023-03-07T23:04:09.784Z,33.20
2023-03-07T23:06:39.960Z,33.07
2023-03-07T23:09:09.526Z,33.03
2023-03-07T23:11:38.356Z,33.02
2023-03-07T23:14:08.851Z,32.95
2023-03-07T23:16:40.035Z,32.82
2023-03-07T23:19:10.184Z,32.73
2023-03-07T23:21:39.979Z,32.67
2023-03-07T23:24:09.947Z,32.68
2023-03-07T23:26:40.304Z,33.85
2023-03-07T23:29:12.611Z,34.21
2023-03-07T23:31:45.596Z,34.33
2023-03-07T23:34:21.182Z,34.41
2023-03-07T23:36:52.695Z,34.41
2023-03-07T23:39:21.550Z,34.30
2023-03-07T23:41:50.883Z,33.00
2023-03-07T23:44:20.065Z,32.74
2023-03-07T23:46:49.709Z,32.93
2023-03-07T23:49:18.298Z,32.61
2023-03-07T23:51:47.871Z,32.45
2023-03-07T23:54:17.579Z,32.34
2023-03-07T23:56:46.478Z,32.28
2023-03-07T23:59:16.550Z,32.16
